Winigan, Missouri
Current Conditions -  °F | °C
As of 10:55 AM on Tuesday 21 Oct 2014 (Local Time) from KIRK Reporting Station
Clear Clear  
Wind Chill: 58°   Ceiling: Unl
Heat Index: 58°   Visibility: 10mi
Dew Point: 48°   Wind: 7mph
Humidity: 70%   Direction: 70°ENE
Pressure: 30.16"   Gusts: NA
Location:  40.05°N, 92.9°W
Report Text: KIRK 211555Z AUTO 07006KT 10SM CLR 14/09 A3016 RMK AO2 SLP218 T01440089
Loading
Personal Weather Stations






























Interactive Weather Map
Tropical Storm Tracking
New forecast layout! Learn more

10-Day Weather Forecast

Advertisements
Track Severe Weather on mobile